sensor_id;sensor_type;location;lat;lon;timestamp;P1;durP1;ratioP1;P2;durP2;ratioP2
48685;SDS011;34485;51.536;3.816;2023-03-01T00:00:18;11.73;;;9.52;;
48685;SDS011;34485;51.536;3.816;2023-03-01T00:02:44;14.00;;;11.13;;
48685;SDS011;34485;51.536;3.816;2023-03-01T00:05:10;15.43;;;11.35;;
48685;SDS011;34485;51.536;3.816;2023-03-01T00:07:36;17.23;;;12.23;;
48685;SDS011;34485;51.536;3.816;2023-03-01T00:10:01;15.07;;;11.32;;
48685;SDS011;34485;51.536;3.816;2023-03-01T00:12:27;17.33;;;10.27;;
48685;SDS011;34485;51.536;3.816;2023-03-01T00:14:53;16.70;;;11.18;;
48685;SDS011;34485;51.536;3.816;2023-03-01T00:17:18;13.87;;;10.97;;
48685;SDS011;34485;51.536;3.816;2023-03-01T00:19:44;12.50;;;9.10;;
48685;SDS011;34485;51.536;3.816;2023-03-01T00:22:09;15.00;;;11.05;;
48685;SDS011;34485;51.536;3.816;2023-03-01T00:24:35;14.47;;;10.17;;
48685;SDS011;34485;51.536;3.816;2023-03-01T00:27:00;17.13;;;10.40;;
48685;SDS011;34485;51.536;3.816;2023-03-01T00:29:26;12.75;;;10.95;;
48685;SDS011;34485;51.536;3.816;2023-03-01T00:31:52;16.02;;;11.43;;
48685;SDS011;34485;51.536;3.816;2023-03-01T00:34:18;14.53;;;12.00;;
48685;SDS011;34485;51.536;3.816;2023-03-01T00:36:43;14.40;;;11.40;;
48685;SDS011;34485;51.536;3.816;2023-03-01T00:39:13;17.48;;;11.38;;
48685;SDS011;34485;51.536;3.816;2023-03-01T00:41:39;14.98;;;11.52;;
48685;SDS011;34485;51.536;3.816;2023-03-01T00:44:05;14.13;;;11.27;;
48685;SDS011;34485;51.536;3.816;2023-03-01T00:46:31;15.23;;;12.57;;
48685;SDS011;34485;51.536;3.816;2023-03-01T00:48:57;15.40;;;11.60;;
48685;SDS011;34485;51.536;3.816;2023-03-01T00:51:24;17.40;;;10.75;;
48685;SDS011;34485;51.536;3.816;2023-03-01T00:53:52;13.65;;;11.68;;
48685;SDS011;34485;51.536;3.816;2023-03-01T00:56:19;16.73;;;13.20;;
48685;SDS011;34485;51.536;3.816;2023-03-01T00:58:45;14.23;;;11.30;;
48685;SDS011;34485;51.536;3.816;2023-03-01T01:01:12;21.25;;;14.13;;
48685;SDS011;34485;51.536;3.816;2023-03-01T01:03:43;21.35;;;12.45;;
48685;SDS011;34485;51.536;3.816;2023-03-01T01:06:23;15.32;;;11.73;;
48685;SDS011;34485;51.536;3.816;2023-03-01T01:08:51;18.50;;;12.90;;
48685;SDS011;34485;51.536;3.816;2023-03-01T01:11:17;20.77;;;13.35;;
48685;SDS011;34485;51.536;3.816;2023-03-01T01:13:44;17.50;;;13.13;;
48685;SDS011;34485;51.536;3.816;2023-03-01T01:16:11;17.98;;;12.60;;
48685;SDS011;34485;51.536;3.816;2023-03-01T01:18:37;18.77;;;11.67;;
48685;SDS011;34485;51.536;3.816;2023-03-01T01:21:03;18.27;;;12.25;;
48685;SDS011;34485;51.536;3.816;2023-03-01T01:23:34;24.65;;;13.07;;
48685;SDS011;34485;51.536;3.816;2023-03-01T01:26:06;20.83;;;14.60;;
48685;SDS011;34485;51.536;3.816;2023-03-01T01:28:34;16.95;;;13.75;;
48685;SDS011;34485;51.536;3.816;2023-03-01T01:31:01;20.42;;;14.63;;
48685;SDS011;34485;51.536;3.816;2023-03-01T01:33:26;27.80;;;14.73;;
48685;SDS011;34485;51.536;3.816;2023-03-01T01:35:52;18.17;;;14.45;;
48685;SDS011;34485;51.536;3.816;2023-03-01T01:38:18;21.05;;;14.27;;
48685;SDS011;34485;51.536;3.816;2023-03-01T01:40:44;29.20;;;15.17;;
48685;SDS011;34485;51.536;3.816;2023-03-01T01:43:18;21.08;;;15.27;;
48685;SDS011;34485;51.536;3.816;2023-03-01T01:45:45;26.00;;;15.43;;
48685;SDS011;34485;51.536;3.816;2023-03-01T01:48:12;22.07;;;14.70;;
48685;SDS011;34485;51.536;3.816;2023-03-01T01:50:43;22.27;;;16.27;;
48685;SDS011;34485;51.536;3.816;2023-03-01T01:53:11;21.20;;;14.57;;
48685;SDS011;34485;51.536;3.816;2023-03-01T01:55:42;20.90;;;16.13;;
48685;SDS011;34485;51.536;3.816;2023-03-01T01:58:11;21.73;;;14.67;;
48685;SDS011;34485;51.536;3.816;2023-03-01T02:00:40;26.73;;;15.52;;
48685;SDS011;34485;51.536;3.816;2023-03-01T02:03:12;22.45;;;16.23;;
48685;SDS011;34485;51.536;3.816;2023-03-01T02:08:11;24.00;;;15.50;;
48685;SDS011;34485;51.536;3.816;2023-03-01T02:10:38;22.65;;;16.95;;
48685;SDS011;34485;51.536;3.816;2023-03-01T02:13:05;21.00;;;14.77;;
48685;SDS011;34485;51.536;3.816;2023-03-01T02:15:35;21.15;;;14.27;;
48685;SDS011;34485;51.536;3.816;2023-03-01T02:18:02;24.80;;;16.00;;
48685;SDS011;34485;51.536;3.816;2023-03-01T02:23:10;22.27;;;16.52;;
48685;SDS011;34485;51.536;3.816;2023-03-01T02:25:56;24.85;;;16.02;;
48685;SDS011;34485;51.536;3.816;2023-03-01T02:28:32;22.00;;;15.77;;
48685;SDS011;34485;51.536;3.816;2023-03-01T02:31:03;21.98;;;15.98;;
48685;SDS011;34485;51.536;3.816;2023-03-01T02:33:51;25.10;;;15.65;;
48685;SDS011;34485;51.536;3.816;2023-03-01T02:36:21;21.52;;;14.00;;
48685;SDS011;34485;51.536;3.816;2023-03-01T02:38:50;21.98;;;16.75;;
48685;SDS011;34485;51.536;3.816;2023-03-01T02:41:19;21.15;;;14.88;;
48685;SDS011;34485;51.536;3.816;2023-03-01T02:43:45;22.17;;;15.25;;
48685;SDS011;34485;51.536;3.816;2023-03-01T02:46:16;18.98;;;13.52;;
48685;SDS011;34485;51.536;3.816;2023-03-01T02:48:51;21.10;;;14.18;;
48685;SDS011;34485;51.536;3.816;2023-03-01T02:56:51;21.02;;;15.77;;
48685;SDS011;34485;51.536;3.816;2023-03-01T02:59:18;22.13;;;16.60;;
48685;SDS011;34485;51.536;3.816;2023-03-01T03:01:46;22.77;;;16.08;;
48685;SDS011;34485;51.536;3.816;2023-03-01T03:04:15;22.58;;;15.95;;
48685;SDS011;34485;51.536;3.816;2023-03-01T03:06:43;23.50;;;16.23;;
48685;SDS011;34485;51.536;3.816;2023-03-01T03:09:09;23.35;;;15.50;;
48685;SDS011;34485;51.536;3.816;2023-03-01T03:11:35;25.23;;;17.13;;
48685;SDS011;34485;51.536;3.816;2023-03-01T03:14:02;26.83;;;16.88;;
48685;SDS011;34485;51.536;3.816;2023-03-01T03:16:27;23.38;;;16.60;;
48685;SDS011;34485;51.536;3.816;2023-03-01T03:18:54;27.50;;;16.98;;
48685;SDS011;34485;51.536;3.816;2023-03-01T03:21:31;24.63;;;17.27;;
48685;SDS011;34485;51.536;3.816;2023-03-01T03:23:57;25.67;;;16.88;;
48685;SDS011;34485;51.536;3.816;2023-03-01T03:26:23;24.85;;;16.23;;
48685;SDS011;34485;51.536;3.816;2023-03-01T03:28:49;25.02;;;16.23;;
48685;SDS011;34485;51.536;3.816;2023-03-01T03:31:14;22.67;;;16.97;;
48685;SDS011;34485;51.536;3.816;2023-03-01T03:33:40;22.95;;;15.68;;
48685;SDS011;34485;51.536;3.816;2023-03-01T03:36:05;23.17;;;15.37;;
48685;SDS011;34485;51.536;3.816;2023-03-01T03:38:31;24.60;;;17.55;;
48685;SDS011;34485;51.536;3.816;2023-03-01T03:41:04;24.17;;;15.93;;
48685;SDS011;34485;51.536;3.816;2023-03-01T03:43:33;31.05;;;16.30;;
48685;SDS011;34485;51.536;3.816;2023-03-01T03:46:00;25.40;;;17.00;;
48685;SDS011;34485;51.536;3.816;2023-03-01T03:48:32;24.27;;;16.95;;
48685;SDS011;34485;51.536;3.816;2023-03-01T03:50:59;22.53;;;15.70;;
48685;SDS011;34485;51.536;3.816;2023-03-01T03:53:25;24.33;;;16.45;;
48685;SDS011;34485;51.536;3.816;2023-03-01T03:55:52;28.70;;;16.40;;
48685;SDS011;34485;51.536;3.816;2023-03-01T03:58:19;26.15;;;17.52;;
48685;SDS011;34485;51.536;3.816;2023-03-01T04:00:47;25.40;;;15.35;;
48685;SDS011;34485;51.536;3.816;2023-03-01T04:03:15;27.08;;;14.90;;
48685;SDS011;34485;51.536;3.816;2023-03-01T04:05:42;25.63;;;15.23;;
48685;SDS011;34485;51.536;3.816;2023-03-01T04:08:08;29.03;;;16.53;;
48685;SDS011;34485;51.536;3.816;2023-03-01T04:10:43;21.23;;;14.68;;
48685;SDS011;34485;51.536;3.816;2023-03-01T04:13:11;21.60;;;15.35;;
48685;SDS011;34485;51.536;3.816;2023-03-01T04:15:39;19.45;;;14.00;;
48685;SDS011;34485;51.536;3.816;2023-03-01T04:18:05;21.38;;;15.38;;
48685;SDS011;34485;51.536;3.816;2023-03-01T04:20:33;23.20;;;15.95;;
48685;SDS011;34485;51.536;3.816;2023-03-01T04:25:52;21.65;;;14.55;;
48685;SDS011;34485;51.536;3.816;2023-03-01T04:30:50;19.88;;;13.38;;
48685;SDS011;34485;51.536;3.816;2023-03-01T04:33:16;23.73;;;14.68;;
48685;SDS011;34485;51.536;3.816;2023-03-01T04:35:42;22.48;;;15.60;;
48685;SDS011;34485;51.536;3.816;2023-03-01T04:38:07;22.50;;;16.03;;
48685;SDS011;34485;51.536;3.816;2023-03-01T04:40:33;21.33;;;15.48;;
48685;SDS011;34485;51.536;3.816;2023-03-01T04:42:59;22.27;;;14.83;;
48685;SDS011;34485;51.536;3.816;2023-03-01T04:45:25;25.17;;;15.93;;
48685;SDS011;34485;51.536;3.816;2023-03-01T04:47:51;23.98;;;15.13;;
48685;SDS011;34485;51.536;3.816;2023-03-01T04:50:19;22.52;;;15.52;;
48685;SDS011;34485;51.536;3.816;2023-03-01T04:52:46;25.52;;;16.35;;
48685;SDS011;34485;51.536;3.816;2023-03-01T04:55:12;23.88;;;16.38;;
48685;SDS011;34485;51.536;3.816;2023-03-01T04:57:38;26.50;;;15.95;;
48685;SDS011;34485;51.536;3.816;2023-03-01T05:00:05;36.95;;;17.85;;
48685;SDS011;34485;51.536;3.816;2023-03-01T05:05:25;25.65;;;14.85;;
48685;SDS011;34485;51.536;3.816;2023-03-01T05:07:53;22.30;;;13.30;;
48685;SDS011;34485;51.536;3.816;2023-03-01T05:10:20;16.70;;;12.30;;
48685;SDS011;34485;51.536;3.816;2023-03-01T05:12:45;21.02;;;11.77;;
48685;SDS011;34485;51.536;3.816;2023-03-01T05:15:11;13.13;;;9.73;;
48685;SDS011;34485;51.536;3.816;2023-03-01T05:17:37;18.15;;;11.27;;
48685;SDS011;34485;51.536;3.816;2023-03-01T05:20:02;18.33;;;11.23;;
48685;SDS011;34485;51.536;3.816;2023-03-01T05:22:33;12.85;;;9.98;;
48685;SDS011;34485;51.536;3.816;2023-03-01T05:24:59;12.67;;;10.47;;
48685;SDS011;34485;51.536;3.816;2023-03-01T05:27:24;13.55;;;9.73;;
48685;SDS011;34485;51.536;3.816;2023-03-01T05:29:50;17.47;;;10.60;;
48685;SDS011;34485;51.536;3.816;2023-03-01T05:32:16;12.25;;;10.00;;
48685;SDS011;34485;51.536;3.816;2023-03-01T05:34:42;11.53;;;9.70;;
48685;SDS011;34485;51.536;3.816;2023-03-01T05:37:07;11.55;;;8.70;;
48685;SDS011;34485;51.536;3.816;2023-03-01T05:39:33;15.15;;;10.18;;
48685;SDS011;34485;51.536;3.816;2023-03-01T05:41:59;10.27;;;9.17;;
48685;SDS011;34485;51.536;3.816;2023-03-01T05:44:26;14.10;;;10.13;;
48685;SDS011;34485;51.536;3.816;2023-03-01T05:46:52;13.60;;;9.38;;
48685;SDS011;34485;51.536;3.816;2023-03-01T05:49:18;12.60;;;9.47;;
48685;SDS011;34485;51.536;3.816;2023-03-01T05:51:47;12.93;;;9.82;;
48685;SDS011;34485;51.536;3.816;2023-03-01T05:54:13;13.77;;;10.68;;
48685;SDS011;34485;51.536;3.816;2023-03-01T05:56:40;18.38;;;10.90;;
48685;SDS011;34485;51.536;3.816;2023-03-01T05:59:05;18.23;;;11.37;;
48685;SDS011;34485;51.536;3.816;2023-03-01T06:01:31;15.07;;;10.95;;
48685;SDS011;34485;51.536;3.816;2023-03-01T06:03:58;14.50;;;11.10;;
48685;SDS011;34485;51.536;3.816;2023-03-01T06:06:24;12.85;;;8.82;;
48685;SDS011;34485;51.536;3.816;2023-03-01T06:08:50;16.07;;;10.70;;
48685;SDS011;34485;51.536;3.816;2023-03-01T06:11:16;20.27;;;12.18;;
48685;SDS011;34485;51.536;3.816;2023-03-01T06:13:42;12.68;;;10.15;;
48685;SDS011;34485;51.536;3.816;2023-03-01T06:16:08;14.65;;;9.82;;
48685;SDS011;34485;51.536;3.816;2023-03-01T06:18:35;13.80;;;11.20;;
48685;SDS011;34485;51.536;3.816;2023-03-01T06:21:02;16.90;;;10.45;;
48685;SDS011;34485;51.536;3.816;2023-03-01T06:23:28;14.73;;;9.50;;
48685;SDS011;34485;51.536;3.816;2023-03-01T06:25:54;13.40;;;9.63;;
48685;SDS011;34485;51.536;3.816;2023-03-01T06:28:19;13.13;;;10.57;;
48685;SDS011;34485;51.536;3.816;2023-03-01T06:30:45;9.93;;;8.17;;
48685;SDS011;34485;51.536;3.816;2023-03-01T06:33:11;13.98;;;9.45;;
48685;SDS011;34485;51.536;3.816;2023-03-01T06:35:36;14.20;;;9.47;;
48685;SDS011;34485;51.536;3.816;2023-03-01T06:38:03;13.50;;;8.57;;
48685;SDS011;34485;51.536;3.816;2023-03-01T06:40:29;12.23;;;8.20;;
48685;SDS011;34485;51.536;3.816;2023-03-01T06:42:56;13.20;;;8.77;;
48685;SDS011;34485;51.536;3.816;2023-03-01T06:45:22;10.38;;;8.50;;
48685;SDS011;34485;51.536;3.816;2023-03-01T06:47:49;9.65;;;7.80;;
48685;SDS011;34485;51.536;3.816;2023-03-01T06:50:15;14.43;;;8.95;;
48685;SDS011;34485;51.536;3.816;2023-03-01T06:52:42;12.07;;;8.23;;
48685;SDS011;34485;51.536;3.816;2023-03-01T06:55:09;12.57;;;8.90;;
48685;SDS011;34485;51.536;3.816;2023-03-01T06:57:36;10.90;;;8.70;;
48685;SDS011;34485;51.536;3.816;2023-03-01T07:00:03;11.02;;;9.00;;
48685;SDS011;34485;51.536;3.816;2023-03-01T07:02:29;11.05;;;8.65;;
48685;SDS011;34485;51.536;3.816;2023-03-01T07:04:54;14.23;;;8.95;;
48685;SDS011;34485;51.536;3.816;2023-03-01T07:07:20;13.03;;;7.93;;
48685;SDS011;34485;51.536;3.816;2023-03-01T07:09:46;14.63;;;8.07;;
48685;SDS011;34485;51.536;3.816;2023-03-01T07:12:11;12.85;;;9.77;;
48685;SDS011;34485;51.536;3.816;2023-03-01T07:14:37;13.60;;;9.65;;
48685;SDS011;34485;51.536;3.816;2023-03-01T07:17:03;14.70;;;8.43;;
48685;SDS011;34485;51.536;3.816;2023-03-01T07:19:28;13.60;;;8.23;;
48685;SDS011;34485;51.536;3.816;2023-03-01T07:21:54;10.27;;;9.05;;
48685;SDS011;34485;51.536;3.816;2023-03-01T07:24:20;15.07;;;7.97;;
48685;SDS011;34485;51.536;3.816;2023-03-01T07:26:50;12.33;;;7.87;;
48685;SDS011;34485;51.536;3.816;2023-03-01T07:29:16;10.68;;;8.63;;
48685;SDS011;34485;51.536;3.816;2023-03-01T07:31:42;9.23;;;7.78;;
48685;SDS011;34485;51.536;3.816;2023-03-01T07:34:08;10.13;;;9.10;;
48685;SDS011;34485;51.536;3.816;2023-03-01T07:36:34;10.13;;;8.17;;
48685;SDS011;34485;51.536;3.816;2023-03-01T07:38:59;13.47;;;9.23;;
48685;SDS011;34485;51.536;3.816;2023-03-01T07:41:27;12.45;;;9.75;;
48685;SDS011;34485;51.536;3.816;2023-03-01T07:43:53;14.63;;;8.40;;
48685;SDS011;34485;51.536;3.816;2023-03-01T07:46:18;9.20;;;7.63;;
48685;SDS011;34485;51.536;3.816;2023-03-01T07:48:44;12.85;;;9.32;;
48685;SDS011;34485;51.536;3.816;2023-03-01T07:51:10;10.03;;;8.47;;
48685;SDS011;34485;51.536;3.816;2023-03-01T07:53:36;13.45;;;7.22;;
48685;SDS011;34485;51.536;3.816;2023-03-01T07:58:27;10.35;;;7.63;;
48685;SDS011;34485;51.536;3.816;2023-03-01T08:00:53;9.87;;;6.67;;
48685;SDS011;34485;51.536;3.816;2023-03-01T08:03:18;11.10;;;7.88;;
48685;SDS011;34485;51.536;3.816;2023-03-01T08:05:44;15.17;;;7.43;;
48685;SDS011;34485;51.536;3.816;2023-03-01T08:08:09;8.93;;;7.30;;
48685;SDS011;34485;51.536;3.816;2023-03-01T08:10:35;8.75;;;7.32;;
48685;SDS011;34485;51.536;3.816;2023-03-01T08:13:01;8.30;;;6.30;;
48685;SDS011;34485;51.536;3.816;2023-03-01T08:15:27;7.77;;;6.40;;
48685;SDS011;34485;51.536;3.816;2023-03-01T08:17:53;6.53;;;5.93;;
48685;SDS011;34485;51.536;3.816;2023-03-01T08:20:18;6.80;;;5.60;;
48685;SDS011;34485;51.536;3.816;2023-03-01T08:22:44;6.32;;;5.72;;
48685;SDS011;34485;51.536;3.816;2023-03-01T08:25:09;6.03;;;4.77;;
48685;SDS011;34485;51.536;3.816;2023-03-01T08:27:35;5.50;;;5.07;;
48685;SDS011;34485;51.536;3.816;2023-03-01T08:30:00;6.15;;;5.55;;
48685;SDS011;34485;51.536;3.816;2023-03-01T08:32:26;5.17;;;4.67;;
48685;SDS011;34485;51.536;3.816;2023-03-01T08:34:52;6.13;;;5.57;;
48685;SDS011;34485;51.536;3.816;2023-03-01T08:37:17;7.10;;;5.65;;
48685;SDS011;34485;51.536;3.816;2023-03-01T08:39:43;6.97;;;5.35;;
48685;SDS011;34485;51.536;3.816;2023-03-01T08:42:09;6.43;;;4.97;;
48685;SDS011;34485;51.536;3.816;2023-03-01T08:44:34;5.87;;;5.03;;
48685;SDS011;34485;51.536;3.816;2023-03-01T08:47:00;7.57;;;5.90;;
48685;SDS011;34485;51.536;3.816;2023-03-01T08:49:27;5.70;;;5.10;;
48685;SDS011;34485;51.536;3.816;2023-03-01T08:51:53;5.43;;;5.03;;
48685;SDS011;34485;51.536;3.816;2023-03-01T08:54:20;5.18;;;4.65;;
48685;SDS011;34485;51.536;3.816;2023-03-01T08:56:46;9.57;;;4.00;;
48685;SDS011;34485;51.536;3.816;2023-03-01T08:59:13;5.60;;;4.25;;
48685;SDS011;34485;51.536;3.816;2023-03-01T09:01:39;5.65;;;4.43;;
48685;SDS011;34485;51.536;3.816;2023-03-01T09:04:08;4.40;;;4.00;;
48685;SDS011;34485;51.536;3.816;2023-03-01T09:06:34;4.90;;;4.38;;
48685;SDS011;34485;51.536;3.816;2023-03-01T09:09:00;5.00;;;4.50;;
48685;SDS011;34485;51.536;3.816;2023-03-01T09:11:27;6.60;;;3.75;;
48685;SDS011;34485;51.536;3.816;2023-03-01T09:13:53;5.25;;;4.32;;
48685;SDS011;34485;51.536;3.816;2023-03-01T09:16:19;4.93;;;4.53;;
48685;SDS011;34485;51.536;3.816;2023-03-01T09:18:49;4.83;;;4.37;;
48685;SDS011;34485;51.536;3.816;2023-03-01T09:21:16;5.15;;;4.68;;
48685;SDS011;34485;51.536;3.816;2023-03-01T09:23:43;5.07;;;4.65;;
48685;SDS011;34485;51.536;3.816;2023-03-01T09:26:11;5.60;;;4.07;;
48685;SDS011;34485;51.536;3.816;2023-03-01T09:28:39;4.72;;;4.30;;
48685;SDS011;34485;51.536;3.816;2023-03-01T09:31:09;6.40;;;4.00;;
48685;SDS011;34485;51.536;3.816;2023-03-01T09:33:38;4.35;;;3.95;;
48685;SDS011;34485;51.536;3.816;2023-03-01T09:36:04;8.70;;;4.53;;
48685;SDS011;34485;51.536;3.816;2023-03-01T09:38:32;4.38;;;3.85;;
48685;SDS011;34485;51.536;3.816;2023-03-01T09:40:59;6.25;;;4.78;;
48685;SDS011;34485;51.536;3.816;2023-03-01T09:43:27;5.13;;;4.40;;
48685;SDS011;34485;51.536;3.816;2023-03-01T09:46:13;5.82;;;4.15;;
48685;SDS011;34485;51.536;3.816;2023-03-01T09:48:44;7.15;;;4.50;;
48685;SDS011;34485;51.536;3.816;2023-03-01T09:51:17;4.50;;;3.67;;
48685;SDS011;34485;51.536;3.816;2023-03-01T09:53:48;6.43;;;5.82;;
48685;SDS011;34485;51.536;3.816;2023-03-01T09:56:19;5.37;;;4.87;;
48685;SDS011;34485;51.536;3.816;2023-03-01T09:59:10;4.55;;;4.15;;
48685;SDS011;34485;51.536;3.816;2023-03-01T10:07:21;4.83;;;4.43;;
48685;SDS011;34485;51.536;3.816;2023-03-01T10:09:52;7.20;;;4.00;;
48685;SDS011;34485;51.536;3.816;2023-03-01T10:12:19;7.18;;;4.75;;
48685;SDS011;34485;51.536;3.816;2023-03-01T10:22:42;5.40;;;4.85;;
48685;SDS011;34485;51.536;3.816;2023-03-01T10:25:13;4.53;;;4.10;;
48685;SDS011;34485;51.536;3.816;2023-03-01T10:30:13;5.32;;;4.55;;
48685;SDS011;34485;51.536;3.816;2023-03-01T10:32:45;5.75;;;4.43;;
48685;SDS011;34485;51.536;3.816;2023-03-01T10:35:18;6.13;;;5.00;;
48685;SDS011;34485;51.536;3.816;2023-03-01T10:38:05;4.37;;;4.03;;
48685;SDS011;34485;51.536;3.816;2023-03-01T10:40:32;6.25;;;4.43;;
48685;SDS011;34485;51.536;3.816;2023-03-01T10:42:59;5.25;;;4.75;;
48685;SDS011;34485;51.536;3.816;2023-03-01T10:45:38;6.40;;;4.88;;
48685;SDS011;34485;51.536;3.816;2023-03-01T10:48:06;7.25;;;5.00;;
48685;SDS011;34485;51.536;3.816;2023-03-01T10:50:32;5.57;;;4.13;;
48685;SDS011;34485;51.536;3.816;2023-03-01T10:53:01;5.47;;;4.97;;
48685;SDS011;34485;51.536;3.816;2023-03-01T10:58:07;6.38;;;4.57;;
48685;SDS011;34485;51.536;3.816;2023-03-01T11:00:50;4.43;;;3.83;;
48685;SDS011;34485;51.536;3.816;2023-03-01T11:03:38;4.88;;;4.43;;
48685;SDS011;34485;51.536;3.816;2023-03-01T11:11:05;5.13;;;4.63;;
48685;SDS011;34485;51.536;3.816;2023-03-01T11:13:51;5.75;;;4.70;;
48685;SDS011;34485;51.536;3.816;2023-03-01T11:16:23;5.72;;;4.82;;
48685;SDS011;34485;51.536;3.816;2023-03-01T11:18:56;5.63;;;5.13;;
48685;SDS011;34485;51.536;3.816;2023-03-01T11:21:30;7.43;;;4.90;;
48685;SDS011;34485;51.536;3.816;2023-03-01T11:24:00;5.33;;;4.80;;
48685;SDS011;34485;51.536;3.816;2023-03-01T11:26:27;5.45;;;4.40;;
48685;SDS011;34485;51.536;3.816;2023-03-01T11:28:56;5.03;;;4.53;;
48685;SDS011;34485;51.536;3.816;2023-03-01T11:31:27;4.93;;;4.43;;
48685;SDS011;34485;51.536;3.816;2023-03-01T11:34:03;5.88;;;4.78;;
48685;SDS011;34485;51.536;3.816;2023-03-01T11:36:42;5.97;;;5.33;;
48685;SDS011;34485;51.536;3.816;2023-03-01T11:39:24;9.65;;;5.20;;
48685;SDS011;34485;51.536;3.816;2023-03-01T11:51:05;4.70;;;4.30;;
48685;SDS011;34485;51.536;3.816;2023-03-01T11:56:40;5.85;;;5.03;;
48685;SDS011;34485;51.536;3.816;2023-03-01T12:08:04;5.00;;;4.32;;
48685;SDS011;34485;51.536;3.816;2023-03-01T12:11:01;5.15;;;4.63;;
48685;SDS011;34485;51.536;3.816;2023-03-01T12:16:59;4.05;;;3.70;;
48685;SDS011;34485;51.536;3.816;2023-03-01T12:22:56;7.68;;;4.30;;
48685;SDS011;34485;51.536;3.816;2023-03-01T12:33:18;7.63;;;4.90;;
48685;SDS011;34485;51.536;3.816;2023-03-01T12:38:40;7.82;;;6.60;;
48685;SDS011;34485;51.536;3.816;2023-03-01T12:44:09;11.52;;;4.43;;
48685;SDS011;34485;51.536;3.816;2023-03-01T12:46:42;5.13;;;4.40;;
48685;SDS011;34485;51.536;3.816;2023-03-01T12:49:31;5.68;;;5.18;;
48685;SDS011;34485;51.536;3.816;2023-03-01T12:51:59;5.97;;;5.38;;
48685;SDS011;34485;51.536;3.816;2023-03-01T12:54:35;5.10;;;4.60;;
48685;SDS011;34485;51.536;3.816;2023-03-01T13:02:47;5.50;;;4.43;;
48685;SDS011;34485;51.536;3.816;2023-03-01T13:08:05;5.65;;;4.65;;
48685;SDS011;34485;51.536;3.816;2023-03-01T13:13:27;4.97;;;4.47;;
48685;SDS011;34485;51.536;3.816;2023-03-01T13:15:54;7.10;;;5.13;;
48685;SDS011;34485;51.536;3.816;2023-03-01T13:20:51;5.43;;;4.95;;
48685;SDS011;34485;51.536;3.816;2023-03-01T13:23:30;4.97;;;4.55;;
48685;SDS011;34485;51.536;3.816;2023-03-01T13:33:46;4.47;;;4.03;;
48685;SDS011;34485;51.536;3.816;2023-03-01T13:41:47;5.90;;;5.33;;
48685;SDS011;34485;51.536;3.816;2023-03-01T13:46:51;6.28;;;4.10;;
48685;SDS011;34485;51.536;3.816;2023-03-01T13:50:00;7.22;;;5.22;;
48685;SDS011;34485;51.536;3.816;2023-03-01T13:52:44;6.93;;;4.67;;
48685;SDS011;34485;51.536;3.816;2023-03-01T13:55:16;5.00;;;4.55;;
48685;SDS011;34485;51.536;3.816;2023-03-01T13:57:46;6.45;;;4.68;;
48685;SDS011;34485;51.536;3.816;2023-03-01T14:03:20;6.70;;;5.32;;
48685;SDS011;34485;51.536;3.816;2023-03-01T14:08:36;5.38;;;4.43;;
48685;SDS011;34485;51.536;3.816;2023-03-01T14:13:57;9.55;;;5.75;;
48685;SDS011;34485;51.536;3.816;2023-03-01T14:19:28;5.15;;;4.75;;
48685;SDS011;34485;51.536;3.816;2023-03-01T14:25:05;5.20;;;3.80;;
48685;SDS011;34485;51.536;3.816;2023-03-01T14:27:41;5.90;;;4.97;;
48685;SDS011;34485;51.536;3.816;2023-03-01T14:30:21;5.57;;;5.05;;
48685;SDS011;34485;51.536;3.816;2023-03-01T14:33:00;5.03;;;4.20;;
48685;SDS011;34485;51.536;3.816;2023-03-01T14:35:28;7.00;;;5.57;;
48685;SDS011;34485;51.536;3.816;2023-03-01T14:37:55;4.70;;;4.30;;
48685;SDS011;34485;51.536;3.816;2023-03-01T14:42:49;5.75;;;5.15;;
48685;SDS011;34485;51.536;3.816;2023-03-01T14:45:15;6.27;;;4.43;;
48685;SDS011;34485;51.536;3.816;2023-03-01T14:47:40;4.95;;;4.20;;
48685;SDS011;34485;51.536;3.816;2023-03-01T14:50:15;4.63;;;4.23;;
48685;SDS011;34485;51.536;3.816;2023-03-01T14:52:55;5.38;;;4.60;;
48685;SDS011;34485;51.536;3.816;2023-03-01T14:57:57;5.30;;;4.45;;
48685;SDS011;34485;51.536;3.816;2023-03-01T15:00:27;5.43;;;5.00;;
48685;SDS011;34485;51.536;3.816;2023-03-01T15:02:56;4.47;;;4.05;;
48685;SDS011;34485;51.536;3.816;2023-03-01T15:05:34;7.78;;;6.10;;
48685;SDS011;34485;51.536;3.816;2023-03-01T15:08:02;5.55;;;5.05;;
48685;SDS011;34485;51.536;3.816;2023-03-01T15:10:29;5.38;;;4.88;;
48685;SDS011;34485;51.536;3.816;2023-03-01T15:13:13;6.60;;;5.97;;
48685;SDS011;34485;51.536;3.816;2023-03-01T15:15:50;4.80;;;4.35;;
48685;SDS011;34485;51.536;3.816;2023-03-01T15:18:19;4.75;;;4.38;;
48685;SDS011;34485;51.536;3.816;2023-03-01T15:20:47;5.85;;;5.05;;
48685;SDS011;34485;51.536;3.816;2023-03-01T15:23:24;5.90;;;4.80;;
48685;SDS011;34485;51.536;3.816;2023-03-01T15:25:52;6.07;;;5.47;;
48685;SDS011;34485;51.536;3.816;2023-03-01T15:31:32;6.88;;;4.07;;
48685;SDS011;34485;51.536;3.816;2023-03-01T15:34:08;6.95;;;4.97;;
48685;SDS011;34485;51.536;3.816;2023-03-01T15:39:59;5.10;;;4.60;;
48685;SDS011;34485;51.536;3.816;2023-03-01T15:45:10;5.47;;;5.05;;
48685;SDS011;34485;51.536;3.816;2023-03-01T15:47:51;8.65;;;5.20;;
48685;SDS011;34485;51.536;3.816;2023-03-01T15:50:54;6.60;;;4.57;;
48685;SDS011;34485;51.536;3.816;2023-03-01T15:53:22;5.65;;;4.78;;
48685;SDS011;34485;51.536;3.816;2023-03-01T15:55:48;5.65;;;5.15;;
48685;SDS011;34485;51.536;3.816;2023-03-01T15:58:16;11.20;;;5.25;;
48685;SDS011;34485;51.536;3.816;2023-03-01T16:00:44;7.35;;;4.93;;
48685;SDS011;34485;51.536;3.816;2023-03-01T16:03:13;7.70;;;5.63;;
48685;SDS011;34485;51.536;3.816;2023-03-01T16:05:39;6.13;;;5.53;;
48685;SDS011;34485;51.536;3.816;2023-03-01T16:08:05;6.63;;;5.93;;
48685;SDS011;34485;51.536;3.816;2023-03-01T16:10:31;9.97;;;4.83;;
48685;SDS011;34485;51.536;3.816;2023-03-01T16:12:58;6.38;;;5.50;;
48685;SDS011;34485;51.536;3.816;2023-03-01T16:17:52;5.65;;;5.15;;
48685;SDS011;34485;51.536;3.816;2023-03-01T16:20:18;4.83;;;4.40;;
48685;SDS011;34485;51.536;3.816;2023-03-01T16:22:44;7.03;;;4.90;;
48685;SDS011;34485;51.536;3.816;2023-03-01T16:25:11;7.68;;;5.38;;
48685;SDS011;34485;51.536;3.816;2023-03-01T16:27:41;7.55;;;5.20;;
48685;SDS011;34485;51.536;3.816;2023-03-01T16:30:07;7.30;;;5.50;;
48685;SDS011;34485;51.536;3.816;2023-03-01T16:32:37;6.05;;;5.40;;
48685;SDS011;34485;51.536;3.816;2023-03-01T16:35:06;7.53;;;5.65;;
48685;SDS011;34485;51.536;3.816;2023-03-01T16:37:34;7.03;;;5.88;;
48685;SDS011;34485;51.536;3.816;2023-03-01T16:40:00;6.03;;;5.43;;
48685;SDS011;34485;51.536;3.816;2023-03-01T16:42:26;7.43;;;5.93;;
48685;SDS011;34485;51.536;3.816;2023-03-01T16:44:55;7.50;;;5.03;;
48685;SDS011;34485;51.536;3.816;2023-03-01T16:47:21;9.18;;;5.68;;
48685;SDS011;34485;51.536;3.816;2023-03-01T16:49:47;5.90;;;5.27;;
48685;SDS011;34485;51.536;3.816;2023-03-01T16:52:16;6.28;;;5.68;;
48685;SDS011;34485;51.536;3.816;2023-03-01T16:54:42;6.90;;;5.90;;
48685;SDS011;34485;51.536;3.816;2023-03-01T16:57:07;4.83;;;4.43;;
48685;SDS011;34485;51.536;3.816;2023-03-01T16:59:33;4.63;;;4.23;;
48685;SDS011;34485;51.536;3.816;2023-03-01T17:01:58;4.93;;;4.38;;
48685;SDS011;34485;51.536;3.816;2023-03-01T17:04:24;7.67;;;6.40;;
48685;SDS011;34485;51.536;3.816;2023-03-01T17:06:50;6.03;;;4.67;;
48685;SDS011;34485;51.536;3.816;2023-03-01T17:09:15;6.28;;;4.80;;
48685;SDS011;34485;51.536;3.816;2023-03-01T17:11:42;5.70;;;5.07;;